Time;durP1;ratioP1;P1;durP2;ratioP2;P2;SDS_P1;SDS_P2;PMS_P1;PMS_P2;Temp;Humidity;BMP_temperature;BMP_pressure;BME280_temperature;BME280_humidity;BME280_pressure;Samples;Min_cycle;Max_cycle;Signal;HPM_P1;HPM_P2
2020/12/20 00:00:42;;;;;;;41.60;33.17;;;10.60;99.90;;;;;;4993838;28;20251;-73
2020/12/20 00:03:09;;;;;;;37.30;31.87;;;10.60;99.90;;;;;;4993125;28;20263;-79
2020/12/20 00:05:35;;;;;;;41.43;31.80;;;10.70;99.90;;;;;;4994276;28;20236;-75
2020/12/20 00:08:02;;;;;;;42.53;32.57;;;10.70;99.90;;;;;;4993736;28;20219;-75
2020/12/20 00:10:28;;;;;;;37.70;32.00;;;10.70;99.90;;;;;;4993672;28;20583;-76
2020/12/20 00:12:55;;;;;;;41.50;34.20;;;10.70;99.90;;;;;;4993445;28;20613;-75
2020/12/20 00:15:23;;;;;;;36.00;31.30;;;10.80;99.90;;;;;;4993917;28;20215;-74
2020/12/20 00:17:50;;;;;;;38.73;32.37;;;10.80;99.90;;;;;;4994134;28;20212;-78
2020/12/20 00:20:18;;;;;;;40.03;32.70;;;10.80;99.90;;;;;;4992969;28;20656;-77
2020/12/20 00:22:44;;;;;;;33.97;30.33;;;10.80;99.90;;;;;;4993871;28;20233;-78
2020/12/20 00:25:11;;;;;;;41.80;34.63;;;10.80;99.90;;;;;;4993289;28;20241;-77
2020/12/20 00:27:37;;;;;;;39.80;32.53;;;10.70;99.90;;;;;;4993546;28;20212;-78
2020/12/20 00:30:05;;;;;;;38.67;31.77;;;10.80;99.90;;;;;;4992952;28;20672;-78
2020/12/20 00:32:32;;;;;;;38.23;32.17;;;10.80;99.90;;;;;;4993247;28;20260;-76
2020/12/20 00:34:59;;;;;;;41.87;31.67;;;10.80;99.90;;;;;;4993067;28;20680;-74
2020/12/20 00:37:25;;;;;;;36.33;32.43;;;10.80;99.90;;;;;;4993167;28;20728;-74
2020/12/20 00:39:53;;;;;;;36.57;31.80;;;10.70;99.90;;;;;;4993571;28;20224;-74
2020/12/20 00:42:20;;;;;;;35.57;31.33;;;10.70;99.90;;;;;;4992634;28;20684;-81
2020/12/20 00:44:46;;;;;;;35.37;30.07;;;10.70;99.90;;;;;;4993316;28;20209;-82
2020/12/20 00:47:13;;;;;;;41.63;31.63;;;10.80;99.90;;;;;;4993366;28;20240;-77
2020/12/20 00:49:40;;;;;;;33.20;29.43;;;10.80;99.90;;;;;;4993590;28;20204;-82
2020/12/20 00:52:07;;;;;;;33.60;29.97;;;10.80;99.90;;;;;;4992875;28;20673;-82
2020/12/20 00:54:34;;;;;;;39.50;30.27;;;10.80;99.90;;;;;;4993171;28;20205;-77
2020/12/20 00:57:01;;;;;;;34.13;30.47;;;10.80;99.90;;;;;;4992436;28;20210;-76
2020/12/20 00:59:27;;;;;;;27.80;23.80;;;10.80;99.90;;;;;;4992988;28;20212;-78
2020/12/20 01:01:56;;;;;;;35.83;26.50;;;10.80;99.90;;;;;;4993489;28;20240;-77
2020/12/20 01:04:22;;;;;;;28.00;25.00;;;10.90;99.90;;;;;;4992986;28;20209;-76
2020/12/20 01:06:54;;;;;;;27.03;23.37;;;10.80;99.90;;;;;;4992863;28;20205;-78
2020/12/20 01:09:21;;;;;;;26.77;19.13;;;10.80;99.90;;;;;;4992759;28;20217;-78
2020/12/20 01:11:47;;;;;;;25.07;19.87;;;10.90;99.90;;;;;;4992480;28;20209;-71
2020/12/20 01:14:14;;;;;;;24.47;18.23;;;10.90;99.90;;;;;;4992490;28;20271;-82
2020/12/20 01:16:40;;;;;;;19.63;16.77;;;11.00;99.90;;;;;;4992696;28;20251;-82
2020/12/20 01:19:06;;;;;;;24.93;18.97;;;11.00;99.90;;;;;;4992256;28;20255;-83
2020/12/20 01:21:34;;;;;;;23.63;17.23;;;11.00;99.90;;;;;;4992702;28;20684;-83
2020/12/20 01:24:02;;;;;;;20.13;16.60;;;11.00;99.90;;;;;;4992238;28;20224;-83
2020/12/20 01:26:28;;;;;;;19.00;17.20;;;11.00;99.90;;;;;;4992603;28;20293;-81
2020/12/20 01:28:56;;;;;;;21.53;17.37;;;11.00;99.90;;;;;;4992564;28;20215;-71
2020/12/20 01:31:22;;;;;;;20.47;15.53;;;11.00;99.90;;;;;;4992950;28;20223;-72
2020/12/20 01:33:48;;;;;;;21.50;17.30;;;10.90;99.90;;;;;;4992277;28;20233;-82
2020/12/20 01:36:16;;;;;;;16.70;14.63;;;10.90;99.90;;;;;;4992086;28;20714;-82
2020/12/20 01:38:43;;;;;;;19.43;14.83;;;10.80;99.90;;;;;;4992234;28;20209;-81
2020/12/20 01:41:10;;;;;;;18.53;15.57;;;10.80;99.90;;;;;;4991904;28;20234;-82
2020/12/20 01:43:44;;;;;;;20.37;16.07;;;10.80;99.90;;;;;;4992553;28;20209;-78
2020/12/20 01:46:12;;;;;;;16.90;15.27;;;10.80;99.90;;;;;;4991742;28;20201;-80
2020/12/20 01:48:39;;;;;;;23.23;15.17;;;10.80;99.90;;;;;;4992086;28;20267;-80
2020/12/20 01:51:06;;;;;;;14.70;11.10;;;10.70;99.90;;;;;;4991575;28;20209;-80
2020/12/20 01:53:34;;;;;;;13.97;12.47;;;10.70;99.90;;;;;;4991700;28;20654;-73
2020/12/20 01:56:01;;;;;;;16.57;11.67;;;10.70;99.90;;;;;;4991373;28;20248;-79
2020/12/20 01:58:29;;;;;;;16.10;11.10;;;10.70;99.90;;;;;;4992121;28;20216;-79
2020/12/20 02:00:56;;;;;;;14.63;12.07;;;10.70;99.90;;;;;;4991834;28;20685;-78
2020/12/20 02:03:24;;;;;;;13.50;11.03;;;10.70;99.90;;;;;;4992091;28;20252;-79
2020/12/20 02:05:51;;;;;;;12.83;10.57;;;10.60;99.90;;;;;;4991096;28;20208;-76
2020/12/20 02:08:18;;;;;;;11.27;8.43;;;10.60;99.90;;;;;;4991032;28;20696;-80
2020/12/20 02:10:45;;;;;;;11.30;9.97;;;10.60;99.90;;;;;;4991910;28;20208;-80
2020/12/20 02:13:11;;;;;;;11.30;9.00;;;10.60;99.90;;;;;;4991458;28;20279;-78
2020/12/20 02:15:38;;;;;;;14.23;9.90;;;10.70;99.90;;;;;;4991355;28;20689;-73
2020/12/20 02:18:05;;;;;;;11.67;8.80;;;10.70;99.90;;;;;;4991244;28;20209;-78
2020/12/20 02:20:31;;;;;;;12.40;9.67;;;10.70;99.90;;;;;;4991128;28;20297;-78
2020/12/20 02:22:59;;;;;;;11.57;9.70;;;10.80;99.90;;;;;;4989444;28;20251;-76
2020/12/20 02:25:25;;;;;;;16.17;10.90;;;10.80;99.90;;;;;;4991159;28;20752;-77
2020/12/20 02:27:51;;;;;;;16.50;11.10;;;10.70;99.90;;;;;;4991684;28;20208;-76
2020/12/20 02:30:18;;;;;;;15.50;10.53;;;10.70;99.90;;;;;;4990030;28;20691;-77
2020/12/20 02:32:44;;;;;;;12.23;10.53;;;10.60;99.90;;;;;;4991044;28;20655;-77
2020/12/20 02:35:11;;;;;;;17.33;12.07;;;10.60;99.90;;;;;;4990628;28;20255;-77
2020/12/20 02:37:37;;;;;;;15.77;10.87;;;10.50;99.90;;;;;;4991722;28;20319;-79
2020/12/20 02:40:05;;;;;;;15.47;9.17;;;10.50;99.90;;;;;;4990752;28;20208;-78
2020/12/20 02:42:31;;;;;;;11.97;9.53;;;10.40;99.90;;;;;;4991390;28;20263;-77
2020/12/20 02:44:58;;;;;;;13.23;10.80;;;10.40;99.90;;;;;;4990748;28;20673;-73
2020/12/20 02:47:24;;;;;;;11.67;10.37;;;10.40;99.90;;;;;;4991382;28;20212;-78
2020/12/20 02:49:51;;;;;;;12.90;10.53;;;10.40;99.90;;;;;;4991774;28;20212;-79
2020/12/20 02:52:17;;;;;;;10.67;9.57;;;10.40;99.90;;;;;;4990725;28;20248;-72
2020/12/20 02:54:43;;;;;;;13.80;9.50;;;10.40;99.90;;;;;;4991106;28;20279;-73
2020/12/20 02:57:11;;;;;;;12.30;8.83;;;10.40;99.90;;;;;;4990468;28;20209;-72
2020/12/20 02:59:37;;;;;;;10.83;8.73;;;10.40;99.90;;;;;;4977643;28;20687;-79
2020/12/20 03:02:04;;;;;;;12.10;8.27;;;10.50;99.90;;;;;;4990633;28;20668;-77
2020/12/20 03:04:30;;;;;;;12.33;8.67;;;10.50;99.90;;;;;;4990796;28;20205;-72
2020/12/20 03:06:56;;;;;;;10.77;8.90;;;10.50;99.90;;;;;;4990753;28;20731;-73
2020/12/20 03:09:23;;;;;;;10.40;8.43;;;10.60;99.90;;;;;;4991348;28;20303;-78
2020/12/20 03:11:49;;;;;;;11.43;8.30;;;10.60;99.90;;;;;;4991359;28;20611;-78
2020/12/20 03:14:17;;;;;;;9.00;7.87;;;10.60;99.90;;;;;;4990382;28;20233;-78
2020/12/20 03:16:43;;;;;;;14.50;9.97;;;10.50;99.90;;;;;;4991007;28;20205;-78
2020/12/20 03:19:09;;;;;;;12.43;9.40;;;10.40;99.90;;;;;;4990859;28;20213;-78
2020/12/20 03:21:36;;;;;;;12.13;9.27;;;10.40;99.90;;;;;;4989671;28;20581;-78
2020/12/20 03:24:02;;;;;;;15.17;10.13;;;10.40;99.90;;;;;;4990318;28;20223;-73
2020/12/20 03:26:29;;;;;;;15.77;10.67;;;10.40;99.90;;;;;;4990801;28;20304;-78
2020/12/20 03:28:56;;;;;;;14.83;12.37;;;10.40;99.90;;;;;;4990760;28;20221;-73
2020/12/20 03:31:25;;;;;;;13.60;11.27;;;10.40;99.90;;;;;;4990829;28;20213;-80
2020/12/20 03:33:51;;;;;;;12.00;10.67;;;10.40;99.90;;;;;;4991441;28;20322;-78
2020/12/20 03:36:18;;;;;;;14.23;12.07;;;10.40;99.90;;;;;;4990184;28;20213;-79
2020/12/20 03:38:45;;;;;;;11.40;9.57;;;10.30;99.90;;;;;;4990520;28;20259;-77
2020/12/20 03:41:11;;;;;;;14.17;10.30;;;10.30;99.90;;;;;;4990452;28;20232;-78
2020/12/20 03:43:37;;;;;;;13.37;9.83;;;10.30;99.90;;;;;;4993936;28;20673;-79
2020/12/20 03:46:04;;;;;;;16.40;11.10;;;10.30;99.90;;;;;;4993850;28;20664;-79
2020/12/20 03:48:31;;;;;;;11.23;9.97;;;10.30;99.90;;;;;;4994408;28;20209;-82
2020/12/20 03:50:58;;;;;;;15.73;11.03;;;10.30;99.90;;;;;;4993732;28;20213;-81
2020/12/20 03:53:25;;;;;;;11.13;9.93;;;10.30;99.90;;;;;;4993630;28;20232;-76
2020/12/20 03:55:51;;;;;;;11.70;10.03;;;10.30;99.90;;;;;;4994231;28;20212;-77
2020/12/20 03:58:17;;;;;;;12.57;9.93;;;10.30;99.90;;;;;;4992465;28;20696;-77
2020/12/20 04:00:44;;;;;;;11.87;8.57;;;10.20;99.90;;;;;;4993881;28;20237;-79
2020/12/20 04:03:10;;;;;;;10.33;9.33;;;10.20;99.90;;;;;;4993900;28;20209;-79
2020/12/20 04:05:37;;;;;;;11.03;8.33;;;10.30;99.90;;;;;;4993272;28;20578;-78
2020/12/20 04:08:04;;;;;;;10.10;6.70;;;10.30;99.90;;;;;;4993637;28;20216;-78
2020/12/20 04:10:30;;;;;;;7.77;6.63;;;10.30;99.90;;;;;;4993498;28;20678;-74
2020/12/20 04:12:57;;;;;;;10.00;6.17;;;10.30;99.90;;;;;;4993434;28;20315;-74
2020/12/20 04:15:23;;;;;;;9.70;6.30;;;10.30;99.90;;;;;;4994279;28;20231;-79
2020/12/20 04:17:50;;;;;;;7.37;3.77;;;10.30;99.90;;;;;;4993758;28;20205;-77
2020/12/20 04:20:16;;;;;;;8.50;5.53;;;10.30;99.90;;;;;;4993147;28;20681;-78
2020/12/20 04:22:43;;;;;;;9.07;4.97;;;10.30;99.90;;;;;;4993330;28;20217;-78
2020/12/20 04:25:10;;;;;;;8.80;5.27;;;10.30;99.90;;;;;;4993223;28;20231;-78
2020/12/20 04:27:36;;;;;;;6.30;4.10;;;10.30;99.90;;;;;;4993340;28;20245;-78
2020/12/20 04:30:04;;;;;;;8.60;3.70;;;10.30;99.90;;;;;;4992957;28;20604;-74
2020/12/20 04:32:30;;;;;;;7.90;5.00;;;10.30;99.90;;;;;;4993636;28;20247;-79
2020/12/20 04:34:57;;;;;;;6.83;3.63;;;10.30;99.90;;;;;;4992967;28;20216;-74
2020/12/20 04:37:23;;;;;;;5.10;3.17;;;10.30;99.90;;;;;;4994000;28;20204;-78
2020/12/20 04:39:50;;;;;;;5.00;3.60;;;10.30;99.90;;;;;;4993510;28;20696;-79
2020/12/20 04:42:17;;;;;;;3.97;3.40;;;10.30;99.90;;;;;;4979554;28;20209;-79
2020/12/20 04:44:44;;;;;;;8.00;3.50;;;10.40;99.90;;;;;;4993202;28;20209;-77
2020/12/20 04:47:11;;;;;;;6.33;4.03;;;10.40;99.90;;;;;;4992848;28;20205;-76
2020/12/20 04:49:44;;;;;;;10.83;4.50;;;10.40;99.90;;;;;;4993347;28;20274;-78
2020/12/20 04:52:11;;;;;;;8.53;4.00;;;10.30;99.90;;;;;;4992942;28;20209;-78
2020/12/20 04:54:39;;;;;;;5.03;3.63;;;10.30;99.90;;;;;;4991864;28;20708;-76
2020/12/20 04:57:07;;;;;;;5.40;4.40;;;10.30;99.90;;;;;;4992419;28;20668;-78
2020/12/20 04:59:36;;;;;;;10.10;4.30;;;10.30;99.90;;;;;;4993169;28;20209;-78
2020/12/20 05:02:02;;;;;;;6.63;3.67;;;10.30;99.90;;;;;;4992626;28;20208;-77
2020/12/20 05:04:29;;;;;;;7.20;4.80;;;10.30;99.90;;;;;;4992991;28;20216;-76
2020/12/20 05:06:56;;;;;;;4.80;4.30;;;10.30;99.90;;;;;;4992983;28;20216;-76
2020/12/20 05:09:23;;;;;;;4.80;4.13;;;10.30;99.90;;;;;;4992752;28;20239;-76
2020/12/20 05:11:49;;;;;;;7.47;4.80;;;10.30;99.90;;;;;;4992870;28;20213;-77
2020/12/20 05:14:17;;;;;;;7.67;5.17;;;10.30;99.90;;;;;;4992302;28;20224;-77
2020/12/20 05:16:43;;;;;;;7.60;5.10;;;10.30;99.90;;;;;;4992677;28;20731;-76
2020/12/20 05:19:15;;;;;;;5.63;4.30;;;10.30;99.90;;;;;;4991993;28;20209;-76
2020/12/20 05:21:43;;;;;;;7.27;4.97;;;10.30;99.90;;;;;;4992508;28;20593;-76
2020/12/20 05:24:25;;;;;;;7.33;5.60;;;10.20;99.90;;;;;;4991832;28;20212;-76
2020/12/20 05:26:51;;;;;;;9.60;5.93;;;10.10;99.90;;;;;;4992705;28;20687;-76
2020/12/20 05:29:25;;;;;;;8.20;5.10;;;10.10;99.90;;;;;;4992092;28;20263;-74
2020/12/20 05:31:52;;;;;;;7.47;5.10;;;10.10;99.90;;;;;;4992707;28;20217;-77
2020/12/20 05:34:21;;;;;;;12.23;6.17;;;10.20;99.90;;;;;;4991539;28;20758;-75
2020/12/20 05:36:48;;;;;;;13.17;7.83;;;10.20;99.90;;;;;;4992053;28;20240;-77
2020/12/20 05:39:16;;;;;;;9.27;6.87;;;10.20;99.90;;;;;;4992194;28;20294;-76
2020/12/20 05:41:43;;;;;;;9.03;6.77;;;10.20;99.90;;;;;;4992167;28;20213;-76
2020/12/20 05:44:14;;;;;;;10.17;6.60;;;10.20;99.90;;;;;;4991914;28;20244;-77
2020/12/20 05:46:42;;;;;;;10.50;6.10;;;10.30;99.90;;;;;;4991643;28;20215;-77
2020/12/20 05:49:19;;;;;;;7.97;6.67;;;10.30;99.90;;;;;;4991807;28;20691;-76
2020/12/20 05:52:06;;;;;;;7.33;6.07;;;10.30;99.90;;;;;;4992106;28;20209;-77
2020/12/20 05:54:37;;;;;;;13.47;6.73;;;10.20;99.90;;;;;;4992119;28;20228;-75
2020/12/20 05:57:10;;;;;;;10.70;8.07;;;10.30;99.90;;;;;;4991582;28;20235;-75
2020/12/20 05:59:37;;;;;;;7.83;7.03;;;10.30;99.90;;;;;;4991805;28;20240;-76
2020/12/20 06:02:06;;;;;;;10.47;8.07;;;10.20;99.90;;;;;;4991272;28;20236;-78
2020/12/20 06:04:33;;;;;;;11.53;7.80;;;10.20;99.90;;;;;;4991732;28;20259;-78
2020/12/20 06:07:00;;;;;;;10.83;8.63;;;10.20;99.90;;;;;;4991554;28;20231;-77
2020/12/20 06:09:27;;;;;;;14.20;8.17;;;10.20;99.90;;;;;;4991833;28;20562;-74
2020/12/20 06:11:55;;;;;;;13.40;9.33;;;10.10;99.90;;;;;;4991915;28;20590;-77
2020/12/20 06:14:25;;;;;;;12.60;9.27;;;10.10;99.90;;;;;;4991238;28;20267;-77
2020/12/20 06:17:17;;;;;;;15.07;10.77;;;10.10;99.90;;;;;;4991830;28;20204;-78
2020/12/20 06:19:49;;;;;;;14.10;10.90;;;10.10;99.90;;;;;;4978349;28;20204;-77
2020/12/20 06:22:19;;;;;;;12.33;10.60;;;10.10;99.90;;;;;;4990939;28;20228;-75
2020/12/20 06:24:48;;;;;;;16.13;10.53;;;10.10;99.90;;;;;;4987981;28;20223;-78
2020/12/20 06:27:15;;;;;;;12.37;10.80;;;10.10;99.90;;;;;;4990520;28;20208;-76
2020/12/20 06:29:44;;;;;;;11.03;9.60;;;10.20;99.90;;;;;;4989124;28;20240;-77
2020/12/20 06:32:13;;;;;;;13.53;10.57;;;10.10;99.90;;;;;;4979026;28;20278;-76
2020/12/20 06:34:42;;;;;;;13.43;10.07;;;10.20;99.90;;;;;;4991200;28;20265;-77
2020/12/20 06:37:10;;;;;;;13.13;11.20;;;10.20;99.90;;;;;;4990537;28;20622;-77
2020/12/20 06:39:40;;;;;;;15.87;11.60;;;10.10;99.90;;;;;;4991500;28;20209;-77
2020/12/20 06:42:08;;;;;;;13.97;11.63;;;10.10;99.90;;;;;;4990837;28;20197;-78
2020/12/20 06:44:34;;;;;;;16.13;14.23;;;10.00;99.90;;;;;;4991201;28;20217;-77
2020/12/20 06:47:01;;;;;;;19.37;13.83;;;10.00;99.90;;;;;;4990579;28;20239;-74
2020/12/20 06:49:35;;;;;;;21.93;13.77;;;10.10;99.90;;;;;;4991269;28;20209;-78
2020/12/20 06:52:23;;;;;;;21.47;14.77;;;10.00;99.90;;;;;;4990772;28;20208;-78
2020/12/20 06:55:04;;;;;;;27.10;15.73;;;10.00;99.90;;;;;;4991394;28;20240;-76
2020/12/20 06:57:31;;;;;;;27.87;18.97;;;10.00;99.90;;;;;;4990586;28;20249;-77
2020/12/20 06:59:57;;;;;;;97.60;62.50;;;10.10;99.90;;;;;;4990566;28;20303;-74
2020/12/20 07:02:42;;;;;;;85.23;57.10;;;10.00;99.90;;;;;;4990841;28;20616;-78
2020/12/20 07:05:36;;;;;;;52.37;37.00;;;10.10;99.90;;;;;;4990680;28;20590;-79
2020/12/20 07:08:07;;;;;;;22.87;18.43;;;10.00;99.90;;;;;;4990443;28;20220;-78
2020/12/20 07:10:44;;;;;;;16.37;14.53;;;10.10;99.90;;;;;;4990915;28;20205;-78
2020/12/20 07:13:12;;;;;;;18.53;16.47;;;10.10;99.90;;;;;;4985643;28;20260;-78
2020/12/20 07:15:50;;;;;;;16.00;14.47;;;10.10;99.90;;;;;;4987343;28;20209;-77
2020/12/20 07:18:42;;;;;;;15.17;13.47;;;10.10;99.90;;;;;;4988578;28;20216;-78
2020/12/20 07:21:13;;;;;;;14.93;12.67;;;10.10;99.90;;;;;;4993981;28;20684;-76
2020/12/20 07:23:42;;;;;;;15.47;13.23;;;10.10;99.90;;;;;;4994355;28;20209;-75
2020/12/20 07:26:10;;;;;;;18.87;13.03;;;10.20;99.90;;;;;;4994292;28;20243;-77
2020/12/20 07:28:37;;;;;;;19.23;14.43;;;10.10;99.90;;;;;;4994510;28;20208;-77
2020/12/20 07:31:14;;;;;;;16.60;13.90;;;10.10;99.90;;;;;;4994265;28;20209;-78
2020/12/20 07:33:40;;;;;;;15.20;12.50;;;10.10;99.90;;;;;;4994044;28;20216;-76
2020/12/20 07:36:07;;;;;;;16.43;13.77;;;10.10;99.90;;;;;;4994328;28;20245;-77
2020/12/20 07:38:34;;;;;;;14.03;11.47;;;10.10;99.90;;;;;;4994055;28;20584;-77
2020/12/20 07:41:05;;;;;;;14.63;12.53;;;10.10;99.90;;;;;;4994165;28;20212;-77
2020/12/20 07:43:32;;;;;;;10.87;9.80;;;10.20;99.90;;;;;;4994028;28;20223;-77
2020/12/20 07:46:00;;;;;;;15.00;11.80;;;10.20;99.90;;;;;;4993946;28;20213;-77
2020/12/20 07:48:27;;;;;;;14.70;12.83;;;10.20;99.90;;;;;;4993459;28;20232;-77
2020/12/20 07:51:08;;;;;;;14.70;10.83;;;10.20;99.90;;;;;;4993965;28;20251;-78
2020/12/20 07:53:35;;;;;;;16.00;11.97;;;10.30;99.90;;;;;;4993487;28;20738;-79
2020/12/20 07:56:02;;;;;;;14.37;12.07;;;10.20;99.90;;;;;;4993714;28;20736;-79
2020/12/20 07:58:32;;;;;;;15.40;11.63;;;10.20;99.90;;;;;;4993750;28;20212;-80
2020/12/20 08:01:06;;;;;;;17.73;11.83;;;10.20;99.90;;;;;;4981911;28;20577;-79
2020/12/20 08:03:33;;;;;;;12.27;10.63;;;10.20;99.90;;;;;;4993889;28;20692;-79
2020/12/20 08:06:04;;;;;;;12.47;10.97;;;10.20;99.90;;;;;;4993649;28;20212;-79
2020/12/20 08:08:31;;;;;;;14.27;11.20;;;10.20;99.90;;;;;;4993768;28;20213;-79
2020/12/20 08:11:03;;;;;;;13.70;10.70;;;10.40;99.90;;;;;;4993540;28;20683;-79
2020/12/20 08:13:30;;;;;;;9.87;8.87;;;10.40;99.90;;;;;;4993028;28;20243;-80
2020/12/20 08:15:57;;;;;;;13.40;10.00;;;10.30;99.90;;;;;;4993221;28;20205;-79
2020/12/20 08:18:24;;;;;;;14.10;11.37;;;10.40;99.90;;;;;;4994065;28;20217;-79
2020/12/20 08:20:50;;;;;;;14.03;10.20;;;10.40;99.90;;;;;;4993694;28;20247;-80
2020/12/20 08:23:17;;;;;;;17.33;12.80;;;10.40;99.90;;;;;;4993399;28;20217;-74
2020/12/20 08:25:44;;;;;;;14.50;11.93;;;10.40;99.90;;;;;;4994453;28;20211;-89
2020/12/20 08:28:11;;;;;;;15.73;11.33;;;10.30;99.90;;;;;;4981674;28;20200;-90
2020/12/20 08:30:38;;;;;;;13.67;12.10;;;10.30;99.90;;;;;;4994261;28;20220;-91
2020/12/20 08:33:04;;;;;;;12.77;11.33;;;10.40;99.90;;;;;;4990314;28;20232;-88
2020/12/20 08:35:31;;;;;;;14.70;12.00;;;10.50;99.90;;;;;;4991926;28;20209;-76
2020/12/20 08:38:00;;;;;;;13.90;12.40;;;10.50;99.90;;;;;;4998044;28;20690;-85
2020/12/20 08:40:31;;;;;;;16.43;12.17;;;10.50;99.90;;;;;;4993367;28;20595;-84
2020/12/20 08:42:58;;;;;;;14.97;13.27;;;10.50;99.90;;;;;;4987438;28;20223;-75
2020/12/20 08:45:28;;;;;;;13.30;11.13;;;10.50;99.90;;;;;;4991534;28;20205;-80
2020/12/20 08:48:01;;;;;;;15.03;10.07;;;10.40;99.90;;;;;;4993813;28;20734;-81
2020/12/20 08:50:31;;;;;;;15.23;11.17;;;10.40;99.90;;;;;;4994262;28;20215;-87
2020/12/20 08:53:02;;;;;;;14.30;11.67;;;10.40;99.90;;;;;;4992936;28;20252;-76
2020/12/20 08:55:28;;;;;;;12.07;9.90;;;10.40;99.90;;;;;;4992164;28;20205;-76
2020/12/20 08:58:02;;;;;;;13.83;11.27;;;10.40;99.90;;;;;;4993222;28;20209;-75
2020/12/20 09:00:29;;;;;;;15.70;10.00;;;10.40;99.90;;;;;;4986524;28;20216;-83
2020/12/20 09:02:59;;;;;;;11.43;10.03;;;10.50;99.90;;;;;;4981339;28;20219;-77
2020/12/20 09:05:28;;;;;;;11.00;9.90;;;10.60;99.90;;;;;;4987168;28;20543;-76
2020/12/20 09:07:57;;;;;;;12.30;10.20;;;10.50;99.90;;;;;;4985336;28;20710;-75
2020/12/20 09:10:26;;;;;;;11.40;9.20;;;10.60;99.90;;;;;;4992513;28;20201;-75
2020/12/20 09:12:54;;;;;;;11.17;9.13;;;10.70;99.90;;;;;;4980576;28;20216;-75
2020/12/20 09:15:22;;;;;;;10.87;8.97;;;10.80;99.90;;;;;;4992758;28;20237;-82
2020/12/20 09:17:51;;;;;;;9.37;8.40;;;11.00;99.90;;;;;;4991302;28;20213;-83
2020/12/20 09:20:19;;;;;;;9.83;8.27;;;11.10;99.90;;;;;;4991178;28;20219;-75
2020/12/20 09:22:55;;;;;;;9.10;8.17;;;11.20;99.90;;;;;;4991627;28;20275;-75
2020/12/20 09:25:36;;;;;;;12.53;9.13;;;11.20;99.90;;;;;;4992721;28;20208;-84
2020/12/20 09:28:05;;;;;;;12.93;9.47;;;11.10;99.90;;;;;;4992586;28;20205;-77
2020/12/20 09:30:44;;;;;;;11.77;8.27;;;11.10;99.90;;;;;;4993016;28;20201;-84
2020/12/20 09:33:19;;;;;;;10.53;9.43;;;11.10;99.90;;;;;;4991814;28;20647;-83
2020/12/20 09:35:54;;;;;;;10.30;9.10;;;11.20;99.90;;;;;;4992104;28;20251;-82
2020/12/20 09:38:21;;;;;;;10.93;8.63;;;11.30;99.90;;;;;;4992518;28;20247;-75
2020/12/20 09:40:47;;;;;;;10.23;9.23;;;11.30;99.90;;;;;;4992516;28;20255;-84
2020/12/20 09:43:20;;;;;;;12.30;9.47;;;11.20;99.90;;;;;;4992029;28;20589;-74
2020/12/20 09:45:46;;;;;;;15.77;9.73;;;11.20;99.90;;;;;;4979909;28;20208;-82
2020/12/20 09:48:13;;;;;;;14.50;13.00;;;11.20;99.90;;;;;;4992301;28;20209;-76
2020/12/20 09:50:41;;;;;;;14.63;12.40;;;11.20;99.90;;;;;;4992090;28;20251;-84
2020/12/20 09:53:07;;;;;;;11.40;10.17;;;11.10;99.90;;;;;;4991875;28;20717;-84
2020/12/20 09:55:33;;;;;;;13.20;11.37;;;11.00;99.90;;;;;;4992196;28;20205;-82
2020/12/20 09:58:00;;;;;;;11.03;9.93;;;11.00;99.90;;;;;;4992304;28;20242;-75
2020/12/20 10:00:26;;;;;;;14.83;11.47;;;11.00;99.90;;;;;;4992204;28;20209;-75
2020/12/20 10:02:53;;;;;;;13.60;11.47;;;11.00;99.90;;;;;;4992456;28;20649;-75
2020/12/20 10:05:19;;;;;;;13.60;10.83;;;11.10;99.90;;;;;;4991857;28;20283;-76
2020/12/20 10:07:46;;;;;;;10.63;9.53;;;11.30;99.90;;;;;;4991265;28;20212;-74
2020/12/20 10:10:13;;;;;;;11.13;9.60;;;11.60;99.90;;;;;;4992055;28;20213;-78
2020/12/20 10:12:40;;;;;;;11.80;10.60;;;12.10;99.90;;;;;;4991846;28;20201;-79
2020/12/20 10:15:06;;;;;;;15.00;10.63;;;12.50;99.90;;;;;;4991447;28;20236;-84
2020/12/20 10:17:32;;;;;;;11.73;9.30;;;12.50;99.90;;;;;;4991733;28;20217;-80
2020/12/20 10:19:59;;;;;;;10.10;8.85;;;12.60;99.90;;;;;;4991473;28;20650;-75
2020/12/20 10:22:26;;;;;;;8.43;7.57;;;13.20;99.90;;;;;;4991717;28;20224;-75
2020/12/20 10:24:54;;;;;;;9.80;7.65;;;14.20;99.90;;;;;;4992356;28;20212;-79
2020/12/20 10:27:20;;;;;;;9.52;7.65;;;13.30;99.90;;;;;;4991801;28;20208;-75
2020/12/20 10:29:47;;;;;;;8.80;8.00;;;12.80;99.90;;;;;;4991419;28;20216;-84
2020/12/20 10:32:14;;;;;;;10.55;8.75;;;12.40;99.90;;;;;;4991590;28;20680;-76
2020/12/20 10:34:41;;;;;;;10.25;8.30;;;12.20;99.90;;;;;;4991952;28;20247;-84
2020/12/20 10:37:07;;;;;;;9.02;8.13;;;12.20;99.90;;;;;;4991322;28;20205;-79
2020/12/20 10:39:33;;;;;;;7.55;6.75;;;12.20;99.90;;;;;;4991982;28;20213;-78
2020/12/20 10:42:01;;;;;;;8.80;7.80;;;12.20;99.90;;;;;;4991464;28;20201;-84
2020/12/20 10:44:28;;;;;;;13.50;7.93;;;12.20;99.90;;;;;;4991873;28;20569;-84
2020/12/20 10:46:54;;;;;;;7.95;7.13;;;12.30;99.90;;;;;;4991844;28;20677;-84
2020/12/20 10:49:21;;;;;;;9.02;7.22;;;12.40;99.90;;;;;;4991870;28;20669;-86
2020/12/20 10:51:52;;;;;;;8.57;7.53;;;12.40;99.90;;;;;;4990866;28;20236;-83
2020/12/20 10:54:19;;;;;;;10.70;7.80;;;12.60;99.90;;;;;;4991473;28;20236;-84
2020/12/20 10:56:47;;;;;;;11.80;8.27;;;12.90;99.90;;;;;;4991721;28;20217;-84
2020/12/20 10:59:15;;;;;;;9.15;8.27;;;13.00;99.90;;;;;;4991390;28;20212;-83
2020/12/20 11:01:41;;;;;;;7.43;6.60;;;13.20;99.90;;;;;;4992127;28;20215;-85
2020/12/20 11:04:08;;;;;;;8.10;7.40;;;13.30;99.90;;;;;;4991364;28;20204;-84
2020/12/20 11:06:34;;;;;;;8.10;7.40;;;13.30;99.90;;;;;;4991873;28;20204;-84
2020/12/20 11:09:01;;;;;;;9.07;8.13;;;13.10;99.90;;;;;;4991469;28;20215;-84
2020/12/20 11:11:31;;;;;;;8.05;7.25;;;13.10;99.90;;;;;;4991969;28;20204;-84
2020/12/20 11:13:59;;;;;;;8.30;7.03;;;13.10;99.90;;;;;;4991049;28;20299;-82
2020/12/20 11:16:26;;;;;;;8.07;7.25;;;12.80;99.90;;;;;;4991788;28;20204;-79
2020/12/20 11:18:53;;;;;;;6.90;6.18;;;12.90;99.90;;;;;;4991848;28;20416;-84
2020/12/20 11:21:20;;;;;;;7.68;6.40;;;12.70;99.90;;;;;;4989963;28;20209;-87
2020/12/20 11:23:48;;;;;;;7.93;7.22;;;12.70;99.90;;;;;;4991129;28;20240;-85
2020/12/20 11:26:16;;;;;;;12.68;6.60;;;12.70;99.90;;;;;;4989789;28;20205;-81
2020/12/20 11:28:44;;;;;;;7.32;6.10;;;12.80;99.90;;;;;;4983140;28;20669;-75
2020/12/20 11:31:12;;;;;;;6.72;6.13;;;12.80;99.90;;;;;;4991250;28;20216;-86
2020/12/20 11:33:39;;;;;;;5.78;5.22;;;12.80;99.90;;;;;;4991712;28;20228;-86
2020/12/20 11:36:06;;;;;;;6.88;5.80;;;12.90;99.90;;;;;;4991301;28;20216;-83
2020/12/20 11:38:34;;;;;;;7.05;6.32;;;13.10;99.90;;;;;;4992238;28;20259;-79
2020/12/20 11:41:01;;;;;;;7.70;6.40;;;13.40;99.90;;;;;;4991668;28;20205;-87
2020/12/20 11:43:27;;;;;;;7.85;7.05;;;13.80;99.90;;;;;;4991007;28;20213;-86
2020/12/20 11:45:54;;;;;;;8.68;7.13;;;14.10;99.90;;;;;;4990289;28;20209;-76
2020/12/20 11:48:21;;;;;;;8.00;7.25;;;14.20;99.90;;;;;;4986087;28;20201;-81
2020/12/20 11:50:49;;;;;;;9.82;8.82;;;13.90;99.90;;;;;;4990203;28;20216;-74
2020/12/20 11:53:15;;;;;;;8.63;7.78;;;13.90;99.90;;;;;;4989362;28;20213;-78
2020/12/20 11:55:42;;;;;;;8.90;8.02;;;14.00;99.90;;;;;;4987465;28;20275;-82
2020/12/20 11:58:12;;;;;;;8.32;6.82;;;13.90;99.90;;;;;;4988667;28;20303;-81
2020/12/20 12:00:41;;;;;;;7.68;6.88;;;14.10;99.90;;;;;;4990724;28;20209;-81
2020/12/20 12:03:08;;;;;;;10.13;8.07;;;14.60;99.90;;;;;;4991002;28;20209;-84
2020/12/20 12:05:36;;;;;;;5.95;5.32;;;14.70;99.90;;;;;;4993255;28;20295;-83
2020/12/20 12:08:04;;;;;;;8.38;6.18;;;14.80;99.90;;;;;;4992557;28;20278;-82
2020/12/20 12:10:30;;;;;;;6.53;5.43;;;14.60;99.90;;;;;;4994093;28;20237;-82
2020/12/20 12:12:57;;;;;;;5.55;3.55;;;14.50;99.90;;;;;;4993903;28;20208;-78
2020/12/20 12:15:23;;;;;;;6.45;3.92;;;14.60;99.90;;;;;;4994027;28;20237;-79
2020/12/20 12:17:50;;;;;;;6.13;3.95;;;14.70;99.90;;;;;;4994030;28;20319;-78
2020/12/20 12:20:16;;;;;;;6.20;3.28;;;14.70;99.90;;;;;;4990023;28;20208;-84
2020/12/20 12:22:43;;;;;;;2.92;2.63;;;14.80;99.90;;;;;;4993609;28;20232;-76
2020/12/20 12:25:10;;;;;;;3.92;2.72;;;14.70;99.90;;;;;;4992240;28;20593;-86
2020/12/20 12:27:37;;;;;;;2.67;2.25;;;14.30;99.90;;;;;;4993570;28;20254;-84
2020/12/20 12:30:03;;;;;;;3.15;2.53;;;14.30;99.90;;;;;;4993684;28;20702;-82
2020/12/20 12:32:30;;;;;;;1.63;1.48;;;14.00;99.90;;;;;;4993431;28;20209;-77
2020/12/20 12:34:57;;;;;;;1.88;1.30;;;14.20;99.90;;;;;;4992692;28;20229;-76
2020/12/20 12:37:23;;;;;;;1.30;1.00;;;14.20;99.90;;;;;;4994128;28;20296;-84
2020/12/20 12:39:50;;;;;;;3.28;1.67;;;14.10;99.90;;;;;;4994591;28;20209;-84